createdAt,value
2023-05-01T00:04:35.690Z,96.72
2023-05-01T00:09:38.357Z,97.22
2023-05-01T00:14:41.590Z,97.29
2023-05-01T00:19:44.072Z,97.39
2023-05-01T00:24:49.226Z,97.32
2023-05-01T00:29:51.875Z,97.47
2023-05-01T00:34:59.180Z,97.78
2023-05-01T00:40:01.931Z,97.64
2023-05-01T00:45:09.203Z,97.92
2023-05-01T00:50:12.331Z,97.62
2023-05-01T00:55:14.865Z,98.04
2023-05-01T01:00:19.653Z,97.62
2023-05-01T01:05:26.208Z,98.03
2023-05-01T01:11:10.802Z,97.61
2023-05-01T01:16:21.929Z,98.31
2023-05-01T01:21:32.594Z,97.84
2023-05-01T01:27:12.569Z,98.20
2023-05-01T01:32:52.591Z,97.88
2023-05-01T01:38:00.874Z,98.54
2023-05-01T01:43:09.542Z,98.88
2023-05-01T01:48:18.102Z,98.49
2023-05-01T01:53:22.375Z,98.77
2023-05-01T01:58:26.715Z,99.03
2023-05-01T02:03:31.780Z,98.48
2023-05-01T02:08:37.489Z,98.77
2023-05-01T02:13:41.353Z,98.93
2023-05-01T02:19:05.526Z,98.92
2023-05-01T02:24:09.357Z,98.37
2023-05-01T02:29:12.131Z,98.43
2023-05-01T02:34:15.955Z,98.26
2023-05-01T02:39:19.304Z,98.46
2023-05-01T02:44:24.216Z,98.82
2023-05-01T02:49:28.011Z,98.23
2023-05-01T02:54:31.392Z,98.31
2023-05-01T02:59:35.237Z,98.26
2023-05-01T03:04:42.936Z,97.84
2023-05-01T03:09:45.652Z,97.17
2023-05-01T03:14:48.201Z,97.19
2023-05-01T03:19:51.926Z,96.34
2023-05-01T03:24:54.509Z,96.49
2023-05-01T03:29:57.817Z,96.35
2023-05-01T03:35:01.030Z,95.89
2023-05-01T03:40:03.972Z,95.18
2023-05-01T03:45:25.585Z,94.63
2023-05-01T03:50:29.252Z,93.43
2023-05-01T03:55:31.814Z,92.88
2023-05-01T04:00:34.574Z,92.64
2023-05-01T04:05:37.596Z,92.23
2023-05-01T04:10:40.132Z,91.86
2023-05-01T04:15:46.935Z,91.93
2023-05-01T04:20:49.702Z,91.59
2023-05-01T04:25:52.281Z,91.21
2023-05-01T04:30:55.059Z,90.14
2023-05-01T04:35:58.306Z,90.01
2023-05-01T04:41:01.119Z,90.38
2023-05-01T04:46:05.069Z,89.29
2023-05-01T04:51:08.878Z,88.92
2023-05-01T04:56:11.419Z,87.51
2023-05-01T05:01:17.310Z,86.68
2023-05-01T05:06:20.635Z,86.85
2023-05-01T05:11:23.410Z,86.60
2023-05-01T05:16:51.922Z,86.27
2023-05-01T05:21:54.988Z,84.59
2023-05-01T05:26:58.221Z,84.73
2023-05-01T05:32:01.955Z,82.42
2023-05-01T05:37:04.870Z,82.90
2023-05-01T05:42:11.468Z,82.87
2023-05-01T05:47:15.385Z,82.27
2023-05-01T05:52:17.997Z,80.08
2023-05-01T05:57:20.617Z,79.26
2023-05-01T06:02:26.217Z,79.88
2023-05-01T06:07:29.215Z,79.60
2023-05-01T06:12:32.181Z,78.85
2023-05-01T06:17:37.869Z,76.06
2023-05-01T06:22:42.966Z,77.01
2023-05-01T06:27:52.715Z,75.22
2023-05-01T06:32:57.609Z,75.44
2023-05-01T06:38:01.030Z,73.79
2023-05-01T06:43:04.122Z,75.16
2023-05-01T06:48:06.704Z,73.95
2023-05-01T06:53:11.323Z,72.45
2023-05-01T06:58:23.574Z,72.34
2023-05-01T07:03:29.724Z,72.41
2023-05-01T07:08:33.205Z,71.26
2023-05-01T07:13:35.867Z,70.60
2023-05-01T07:18:39.593Z,71.27
2023-05-01T07:23:42.359Z,69.83
2023-05-01T07:28:44.954Z,69.37
2023-05-01T07:33:48.321Z,70.03
2023-05-01T07:38:51.067Z,68.47
2023-05-01T07:43:53.616Z,69.67
2023-05-01T07:48:56.349Z,68.26
2023-05-01T07:53:59.315Z,66.46
2023-05-01T07:59:01.931Z,66.30
2023-05-01T08:04:04.688Z,65.33
2023-05-01T08:09:09.728Z,64.78
2023-05-01T08:14:12.311Z,64.04
2023-05-01T08:19:14.897Z,64.03
2023-05-01T08:24:17.423Z,62.35
2023-05-01T08:29:20.025Z,62.85
2023-05-01T08:34:23.085Z,62.39
2023-05-01T08:39:25.772Z,62.16
2023-05-01T08:44:29.353Z,63.33
2023-05-01T08:49:35.081Z,63.83
2023-05-01T08:54:42.661Z,64.30
2023-05-01T08:59:47.421Z,61.94
2023-05-01T09:04:55.722Z,62.03
2023-05-01T09:09:58.582Z,64.33
2023-05-01T09:15:03.212Z,63.77
2023-05-01T09:20:08.011Z,63.72
2023-05-01T09:25:11.313Z,63.80
2023-05-01T09:30:35.886Z,62.66
2023-05-01T09:35:59.899Z,61.61
2023-05-01T09:41:06.683Z,61.53
2023-05-01T09:46:11.035Z,61.56
2023-05-01T09:51:33.575Z,63.92
2023-05-01T09:56:48.112Z,60.47
2023-05-01T10:01:51.017Z,60.82
2023-05-01T10:06:54.030Z,62.09
2023-05-01T10:11:58.038Z,59.59
2023-05-01T10:17:00.758Z,59.45
2023-05-01T10:22:03.683Z,59.15
2023-05-01T10:27:10.693Z,59.08
2023-05-01T10:32:13.732Z,60.71
2023-05-01T10:37:46.270Z,58.09
2023-05-01T10:43:13.416Z,58.72
2023-05-01T10:48:41.010Z,58.83
2023-05-01T10:53:45.389Z,58.94
2023-05-01T10:58:52.019Z,61.50
2023-05-01T11:03:56.214Z,60.80
2023-05-01T11:08:58.907Z,57.43
2023-05-01T11:14:03.236Z,58.79
2023-05-01T11:19:09.905Z,58.48
2023-05-01T11:24:12.552Z,58.20
2023-05-01T11:29:15.129Z,60.75
2023-05-01T11:34:18.370Z,60.71
2023-05-01T11:39:22.295Z,58.72
2023-05-01T11:44:27.892Z,53.09
2023-05-01T11:49:30.528Z,49.23
2023-05-01T11:54:47.978Z,50.49
2023-05-01T11:59:50.652Z,49.35
2023-05-01T12:04:54.216Z,49.49
2023-05-01T12:09:57.058Z,54.34
2023-05-01T12:14:59.887Z,45.61
2023-05-01T12:20:04.735Z,49.25
2023-05-01T12:25:08.046Z,51.23
2023-05-01T12:30:11.004Z,49.41
2023-05-01T12:35:16.911Z,48.33
2023-05-01T12:40:25.591Z,48.60
2023-05-01T12:45:31.017Z,45.74
2023-05-01T12:50:38.575Z,46.43
2023-05-01T12:55:48.455Z,48.92
2023-05-01T13:01:09.314Z,44.96
2023-05-01T13:06:11.877Z,43.76
2023-05-01T13:11:18.151Z,41.48
2023-05-01T13:16:21.195Z,42.86
2023-05-01T13:21:25.179Z,44.22
2023-05-01T13:26:33.316Z,46.85
2023-05-01T13:31:35.970Z,50.08
2023-05-01T13:36:40.753Z,50.23
2023-05-01T13:41:43.179Z,50.85
2023-05-01T13:46:46.826Z,52.19
2023-05-01T13:51:49.803Z,53.10
2023-05-01T13:56:53.495Z,54.61
2023-05-01T14:01:56.321Z,54.42
2023-05-01T14:07:01.529Z,56.91
2023-05-01T14:12:04.253Z,55.85
2023-05-01T14:17:09.428Z,55.43
2023-05-01T14:22:12.593Z,55.35
2023-05-01T14:27:15.782Z,58.80
2023-05-01T14:32:18.372Z,59.67
2023-05-01T14:37:20.958Z,60.14
2023-05-01T14:42:23.484Z,60.78
2023-05-01T14:47:31.534Z,61.97
2023-05-01T14:52:39.425Z,63.05
2023-05-01T14:57:43.860Z,63.69
2023-05-01T15:02:47.213Z,63.67
2023-05-01T15:07:49.889Z,64.14
2023-05-01T15:12:52.585Z,64.92
2023-05-01T15:17:56.187Z,65.29
2023-05-01T15:22:58.695Z,65.34
2023-05-01T15:28:01.905Z,65.64
2023-05-01T15:33:04.935Z,66.30
2023-05-01T15:38:08.644Z,66.72
2023-05-01T15:43:11.126Z,67.75
2023-05-01T15:48:16.049Z,66.96
2023-05-01T15:53:18.745Z,67.37
2023-05-01T15:58:23.588Z,67.85
2023-05-01T16:03:26.324Z,68.56
2023-05-01T16:08:29.130Z,67.85
2023-05-01T16:13:31.835Z,68.42
2023-05-01T16:18:39.867Z,68.00
2023-05-01T16:23:42.477Z,67.89
2023-05-01T16:28:44.955Z,68.02
2023-05-01T16:33:50.418Z,67.73
2023-05-01T16:38:55.375Z,67.79
2023-05-01T16:44:01.212Z,67.08
2023-05-01T16:49:05.204Z,66.96
2023-05-01T16:54:08.151Z,66.55
2023-05-01T16:59:10.608Z,66.33
2023-05-01T17:04:14.557Z,66.21
2023-05-01T17:09:18.958Z,65.93
2023-05-01T17:14:31.674Z,65.77
2023-05-01T17:19:34.296Z,65.92
2023-05-01T17:24:39.860Z,66.29
2023-05-01T17:29:42.519Z,66.35
2023-05-01T17:34:45.067Z,66.39
2023-05-01T17:39:47.444Z,66.72
2023-05-01T17:44:49.962Z,66.80
2023-05-01T17:49:52.844Z,66.49
2023-05-01T17:54:55.321Z,66.92
2023-05-01T17:59:58.572Z,67.00
2023-05-01T18:05:01.823Z,66.78
2023-05-01T18:10:07.665Z,66.49
2023-05-01T18:15:10.596Z,66.87
2023-05-01T18:20:16.118Z,66.41
2023-05-01T18:25:18.772Z,66.51
2023-05-01T18:30:23.687Z,66.31
2023-05-01T18:35:26.171Z,66.16
2023-05-01T18:40:28.740Z,66.12
2023-05-01T18:45:31.483Z,66.03
2023-05-01T18:50:36.852Z,65.97
2023-05-01T18:55:39.379Z,65.95
2023-05-01T19:00:42.029Z,65.98
2023-05-01T19:05:44.775Z,66.65
2023-05-01T19:10:47.449Z,66.49
2023-05-01T19:15:50.049Z,65.97
2023-05-01T19:20:52.904Z,65.88
2023-05-01T19:25:55.556Z,65.93
2023-05-01T19:30:58.253Z,65.84
2023-05-01T19:36:01.008Z,65.78
2023-05-01T19:41:04.582Z,65.87
2023-05-01T19:46:07.785Z,65.50
2023-05-01T19:51:10.398Z,64.86
2023-05-01T19:56:13.055Z,65.28
2023-05-01T20:01:15.565Z,65.19
2023-05-01T20:06:18.207Z,65.24
2023-05-01T20:11:21.096Z,65.96
2023-05-01T20:16:23.722Z,65.88
2023-05-01T20:21:26.248Z,66.16
2023-05-01T20:26:47.334Z,66.14
2023-05-01T20:31:51.744Z,66.76
2023-05-01T20:36:54.343Z,67.06
2023-05-01T20:41:59.344Z,66.84
2023-05-01T20:47:01.892Z,67.31
2023-05-01T20:52:04.407Z,66.85
2023-05-01T20:57:07.108Z,67.20
2023-05-01T21:02:10.012Z,67.65
2023-05-01T21:07:13.276Z,68.09
2023-05-01T21:12:18.424Z,68.37
2023-05-01T21:17:21.021Z,68.30
2023-05-01T21:22:24.287Z,68.77
2023-05-01T21:27:27.694Z,68.69
2023-05-01T21:32:38.390Z,68.63
2023-05-01T21:37:43.874Z,68.83
2023-05-01T21:42:46.787Z,69.14
2023-05-01T21:47:51.563Z,69.13
2023-05-01T21:52:54.222Z,69.66
2023-05-01T21:57:58.855Z,69.70
2023-05-01T22:03:06.454Z,70.04
2023-05-01T22:08:09.026Z,69.82
2023-05-01T22:13:12.056Z,69.83
2023-05-01T22:18:19.784Z,70.16
2023-05-01T22:23:22.505Z,69.88
2023-05-01T22:28:25.133Z,70.46
2023-05-01T22:33:28.359Z,70.40
2023-05-01T22:38:31.016Z,70.38
2023-05-01T22:43:34.821Z,70.16
2023-05-01T22:48:37.286Z,70.44
2023-05-01T22:53:39.822Z,69.79
2023-05-01T22:58:43.120Z,70.36
2023-05-01T23:03:45.830Z,70.49
2023-05-01T23:08:52.938Z,70.29
2023-05-01T23:13:55.434Z,69.91
2023-05-01T23:18:58.012Z,70.22
2023-05-01T23:24:01.717Z,70.45
2023-05-01T23:29:07.263Z,70.66
2023-05-01T23:34:09.855Z,71.13
2023-05-01T23:39:12.827Z,71.56
2023-05-01T23:44:15.813Z,71.39
2023-05-01T23:49:19.334Z,71.98
2023-05-01T23:54:21.742Z,71.99
2023-05-01T23:59:25.786Z,72.26
